Time;durP1;ratioP1;P1;durP2;ratioP2;P2;SDS_P1;SDS_P2;PMS_P1;PMS_P2;Temp;Humidity;BMP_temperature;BMP_pressure;BME280_temperature;BME280_humidity;BME280_pressure;Samples;Min_cycle;Max_cycle;Signal;HPM_P1;HPM_P2
2022/07/16 00:02:57;;;;;;;1.90;0.40;;;;;;;16.62;60.75;101254.25;5075158;28;20208;-75
2022/07/16 00:05:24;;;;;;;0.87;0.40;;;;;;;16.65;60.97;101243.66;5075086;28;20208;-76
2022/07/16 00:07:50;;;;;;;0.63;0.50;;;;;;;16.55;60.26;101260.63;5075320;28;20211;-75
2022/07/16 00:10:17;;;;;;;0.83;0.40;;;;;;;16.53;60.48;101278.25;5075221;28;20206;-75
2022/07/16 00:12:43;;;;;;;0.63;0.30;;;;;;;16.55;60.74;101264.16;5075213;28;20268;-75
2022/07/16 00:15:10;;;;;;;0.80;0.40;;;;;;;16.54;60.88;101258.91;5074751;28;20211;-75
2022/07/16 00:17:36;;;;;;;0.80;0.40;;;;;;;16.53;60.58;101265.97;5074946;28;20225;-75
2022/07/16 00:20:05;;;;;;;0.43;0.40;;;;;;;16.55;59.99;101268.53;5074961;28;20211;-75
2022/07/16 00:22:31;;;;;;;0.43;0.37;;;;;;;16.57;60.17;101280.78;5067112;28;20290;-75
2022/07/16 00:24:58;;;;;;;0.40;0.40;;;;;;;16.61;59.70;101279.78;5066391;28;20253;-75
2022/07/16 00:27:24;;;;;;;0.60;0.40;;;;;;;16.62;59.92;101292.03;5074991;28;20207;-75
2022/07/16 00:29:51;;;;;;;0.83;0.43;;;;;;;16.61;59.41;101298.22;5074497;28;20277;-75
2022/07/16 00:32:17;;;;;;;0.60;0.40;;;;;;;16.61;59.64;101290.31;5074674;28;20211;-75
2022/07/16 00:34:43;;;;;;;0.90;0.47;;;;;;;16.59;59.84;101294.78;5074580;28;20266;-75
2022/07/16 00:37:11;;;;;;;0.53;0.40;;;;;;;16.59;59.93;101281.59;5074576;28;20230;-75
2022/07/16 00:39:38;;;;;;;1.00;0.57;;;;;;;16.53;59.97;101279.16;5074683;28;20231;-75
2022/07/16 00:42:04;;;;;;;1.37;0.57;;;;;;;16.53;60.00;101279.16;5074789;28;20219;-75
2022/07/16 00:44:31;;;;;;;0.50;0.50;;;;;;;16.52;60.10;101277.41;5074471;28;20207;-75
2022/07/16 00:46:57;;;;;;;1.13;0.50;;;;;;;16.41;60.17;101269.84;5074373;28;20206;-75
2022/07/16 00:49:24;;;;;;;1.20;0.57;;;;;;;16.45;60.59;101254.78;5074597;28;20278;-75
2022/07/16 00:51:52;;;;;;;0.70;0.50;;;;;;;16.49;60.54;101253.78;5071015;28;20251;-75
2022/07/16 00:54:21;;;;;;;0.90;0.60;;;;;;;16.40;60.90;101246.16;5062684;28;20196;-75
2022/07/16 00:56:47;;;;;;;1.67;0.40;;;;;;;16.37;61.45;101235.69;5033936;28;20677;-75
2022/07/16 00:59:14;;;;;;;0.60;0.40;;;;;;;16.31;61.36;101220.94;5034307;28;20775;-75
2022/07/16 01:01:41;;;;;;;0.50;0.50;;;;;;;16.13;61.87;101203.91;5033990;28;20215;-75
2022/07/16 01:04:10;;;;;;;1.50;0.50;;;;;;;16.11;62.09;101200.47;5034050;28;20213;-75
2022/07/16 01:06:37;;;;;;;1.60;0.53;;;;;;;15.96;62.49;101195.66;5033933;28;20207;-75
2022/07/16 01:09:04;;;;;;;1.57;0.47;;;;;;;15.98;62.33;101185.94;5034003;28;20593;-75
2022/07/16 01:11:32;;;;;;;1.07;0.60;;;;;;;15.77;63.22;101175.13;5032902;28;20211;-75
2022/07/16 01:14:01;;;;;;;0.87;0.87;;;;;;;15.84;63.27;101160.03;5034207;28;20211;-75
2022/07/16 01:16:27;;;;;;;1.47;0.60;;;;;;;15.89;63.12;101156.31;5033652;28;20289;-75
2022/07/16 01:18:54;;;;;;;0.57;0.43;;;;;;;15.74;63.53;101164.69;5033518;28;20290;-75
2022/07/16 01:21:20;;;;;;;2.67;0.80;;;;;;;15.79;63.64;101151.38;5033893;28;20254;-75
2022/07/16 01:23:49;;;;;;;1.10;0.80;;;;;;;15.66;64.02;101138.56;5061560;28;20204;-75
2022/07/16 01:26:16;;;;;;;0.80;0.53;;;;;;;15.63;64.18;101137.78;5069294;28;20633;-75
2022/07/16 01:28:42;;;;;;;1.80;0.60;;;;;;;15.71;63.90;101129.66;5073634;28;20639;-75
2022/07/16 01:31:10;;;;;;;0.80;0.50;;;;;;;15.81;63.55;101139.03;5073348;28;20207;-75
2022/07/16 01:33:40;;;;;;;1.00;0.60;;;;;;;15.74;63.75;101146.25;5073673;28;20205;-75
2022/07/16 01:36:08;;;;;;;1.87;0.50;;;;;;;15.78;63.84;101139.16;5073507;28;20208;-75
2022/07/16 01:38:37;;;;;;;1.17;0.60;;;;;;;15.81;63.31;101139.88;5073404;28;20255;-75
2022/07/16 01:41:05;;;;;;;0.60;0.60;;;;;;;15.68;63.71;101144.63;5073800;28;20210;-75
2022/07/16 01:43:31;;;;;;;1.43;0.70;;;;;;;15.76;63.45;101139.19;5073580;28;20210;-75
2022/07/16 01:45:59;;;;;;;1.80;0.60;;;;;;;15.77;63.67;101134.78;5073049;28;20204;-75
2022/07/16 01:48:27;;;;;;;0.50;0.50;;;;;;;15.73;63.80;101138.41;5073157;28;20706;-75
2022/07/16 01:50:55;;;;;;;0.80;0.60;;;;;;;15.76;63.44;101140.97;5073216;28;20206;-75
2022/07/16 01:53:21;;;;;;;0.53;0.50;;;;;;;15.91;63.05;101147.53;5065558;28;20207;-75
2022/07/16 01:55:48;;;;;;;0.50;0.50;;;;;;;15.86;63.36;101145.91;5056786;28;20252;-75
2022/07/16 01:58:16;;;;;;;1.23;0.70;;;;;;;15.67;64.05;101132.38;5073260;28;20592;-77
2022/07/16 02:00:45;;;;;;;1.13;0.73;;;;;;;15.77;64.25;101126.88;5072735;28;20201;-75
2022/07/16 02:03:12;;;;;;;2.07;1.17;;;;;;;15.77;64.20;101129.50;5072398;28;20672;-74
2022/07/16 02:05:39;;;;;;;3.17;0.93;;;;;;;15.73;64.32;101112.94;5072603;28;20205;-75
2022/07/16 02:08:06;;;;;;;1.67;0.80;;;;;;;15.78;64.53;101099.66;5072981;28;20221;-75
2022/07/16 02:10:33;;;;;;;2.10;1.03;;;;;;;15.62;65.64;101083.44;5072922;28;20260;-75
2022/07/16 02:12:59;;;;;;;1.37;1.17;;;;;;;15.63;65.95;101064.09;5072863;28;20209;-75
2022/07/16 02:15:27;;;;;;;2.57;0.93;;;;;;;15.63;66.37;101038.63;5072211;28;20211;-75
2022/07/16 02:17:53;;;;;;;3.63;1.10;;;;;;;15.76;65.87;101030.41;5072119;28;20241;-75
2022/07/16 02:20:20;;;;;;;1.07;0.97;;;;;;;15.78;66.02;101033.84;5072795;28;20210;-75
2022/07/16 02:22:46;;;;;;;1.30;0.90;;;;;;;15.87;65.66;101041.44;5064514;28;20201;-75
2022/07/16 02:25:13;;;;;;;1.70;1.00;;;;;;;15.88;65.98;101033.50;5064047;28;20202;-75
2022/07/16 02:28:05;;;;;;;2.90;1.10;;;;;;;15.93;65.99;101037.75;5072481;28;20284;-75
2022/07/16 02:30:29;;;;;;;1.87;0.90;;;;;;;15.81;66.18;101026.69;5072094;28;20203;-75
2022/07/16 02:32:56;;;;;;;1.90;1.00;;;;;;;15.81;66.33;101017.94;5072447;28;20207;-75
2022/07/16 02:35:22;;;;;;;1.80;1.43;;;;;;;15.80;66.55;101022.34;5072138;28;20626;-75
2022/07/16 02:37:49;;;;;;;1.40;1.13;;;;;;;15.95;65.96;101026.25;5072304;28;20638;-75
2022/07/16 02:40:15;;;;;;;2.93;0.90;;;;;;;16.02;65.85;101024.31;5072464;28;20206;-75
2022/07/16 02:42:42;;;;;;;1.70;1.00;;;;;;;16.14;65.27;101034.44;5072377;28;20667;-75
2022/07/16 02:45:10;;;;;;;1.30;1.13;;;;;;;16.07;64.93;101065.41;5071592;28;20614;-75
2022/07/16 02:47:38;;;;;;;1.70;1.03;;;;;;;16.01;65.20;101056.81;5072012;28;20205;-75
2022/07/16 02:50:06;;;;;;;1.07;0.97;;;;;;;16.09;65.03;101054.78;5072329;28;20211;-75
2022/07/16 02:52:32;;;;;;;3.37;1.10;;;;;;;16.00;65.13;101060.38;5064519;28;20302;-75
2022/07/16 02:54:58;;;;;;;0.87;0.87;;;;;;;16.10;64.82;101059.16;5063343;28;20663;-75
2022/07/16 02:57:25;;;;;;;1.13;0.93;;;;;;;16.08;64.74;101068.88;5072412;28;20259;-75
2022/07/16 02:59:51;;;;;;;1.90;0.90;;;;;;;16.13;64.60;101064.31;5072231;28;20233;-75
2022/07/16 03:02:18;;;;;;;1.57;0.80;;;;;;;16.17;64.39;101067.72;5071848;28;20279;-76
2022/07/16 03:04:45;;;;;;;2.50;2.20;;;;;;;15.99;64.46;101079.69;5071217;28;20217;-75
2022/07/16 03:07:12;;;;;;;2.30;1.10;;;;;;;15.89;65.15;101061.53;5071927;28;20203;-76
2022/07/16 03:09:38;;;;;;;1.23;0.90;;;;;;;15.94;64.95;101061.41;5072174;28;20220;-76
2022/07/16 03:12:05;;;;;;;1.17;1.03;;;;;;;15.89;65.13;101060.69;5071897;28;20256;-76
2022/07/16 03:14:31;;;;;;;1.00;0.90;;;;;;;15.78;65.42;101045.22;5072000;28;20252;-75
2022/07/16 03:16:58;;;;;;;1.47;0.97;;;;;;;15.90;65.22;101041.34;5071239;28;20680;-76
2022/07/16 03:19:24;;;;;;;1.80;1.10;;;;;;;15.78;65.61;101037.34;5071741;28;20268;-75
2022/07/16 03:21:52;;;;;;;1.20;1.00;;;;;;;15.89;65.46;101023.81;5068272;28;20214;-76
2022/07/16 03:24:19;;;;;;;1.70;1.17;;;;;;;15.94;65.66;101029.81;5060207;28;20279;-76
2022/07/16 03:26:45;;;;;;;2.13;1.47;;;;;;;15.97;65.38;101020.94;5071193;28;20576;-76
2022/07/16 03:29:11;;;;;;;2.50;1.10;;;;;;;16.03;65.25;101023.38;5071803;28;20226;-76
2022/07/16 03:31:38;;;;;;;1.23;1.00;;;;;;;16.00;65.57;101026.13;5071434;28;20202;-76
2022/07/16 03:34:04;;;;;;;1.50;1.40;;;;;;;15.77;66.40;101011.91;5073033;28;20214;-76
2022/07/16 03:36:31;;;;;;;1.47;1.20;;;;;;;15.60;67.36;100987.84;5075770;28;20229;-75
2022/07/16 03:39:00;;;;;;;1.37;1.07;;;;;;;15.74;66.94;100974.28;5075902;28;20225;-76
2022/07/16 03:41:27;;;;;;;3.03;1.20;;;;;;;15.75;66.84;100983.91;5075886;28;20241;-76
2022/07/16 03:43:53;;;;;;;1.77;1.00;;;;;;;15.79;67.39;100996.06;5075895;28;20205;-76
2022/07/16 03:46:20;;;;;;;2.40;1.20;;;;;;;15.73;68.73;100962.91;5074999;28;20208;-76
2022/07/16 03:48:46;;;;;;;1.53;1.23;;;;;;;15.47;69.61;100914.56;5075492;28;20265;-76
2022/07/16 03:51:13;;;;;;;2.27;1.10;;;;;;;15.36;70.57;100890.38;5075877;28;20205;-75
2022/07/16 03:53:40;;;;;;;2.93;1.47;;;;;;;15.31;70.71;100857.25;5065282;28;20212;-76
2022/07/16 03:56:09;;;;;;;1.87;1.60;;;;;;;15.37;70.59;100860.53;5069653;28;20259;-76
2022/07/16 03:58:36;;;;;;;1.30;1.20;;;;;;;15.43;70.44;100852.44;5075336;28;20364;-76
2022/07/16 04:01:02;;;;;;;1.40;1.30;;;;;;;15.45;70.42;100863.75;5074984;28;20271;-75
2022/07/16 04:03:29;;;;;;;2.27;1.40;;;;;;;15.48;70.82;100841.78;5074842;28;20732;-76
2022/07/16 04:05:55;;;;;;;2.10;1.43;;;;;;;15.46;70.69;100848.81;5075220;28;20209;-76
2022/07/16 04:08:22;;;;;;;1.57;1.40;;;;;;;15.43;70.97;100841.06;5075270;28;20644;-76
2022/07/16 04:10:48;;;;;;;2.33;1.40;;;;;;;15.54;70.42;100833.69;5075263;28;20209;-76
2022/07/16 04:13:16;;;;;;;1.73;1.47;;;;;;;15.63;70.29;100849.13;5075088;28;20210;-76
2022/07/16 04:15:43;;;;;;;1.50;1.40;;;;;;;15.73;69.76;100854.13;5074735;28;20204;-77
2022/07/16 04:18:09;;;;;;;1.43;1.33;;;;;;;15.82;69.75;100869.63;5075064;28;20321;-76
2022/07/16 04:20:36;;;;;;;1.63;1.20;;;;;;;15.77;70.38;100882.94;5075160;28;20201;-76
2022/07/16 04:23:02;;;;;;;1.50;1.40;;;;;;;15.78;69.80;100884.66;5067110;28;20209;-76
2022/07/16 04:25:29;;;;;;;1.27;1.17;;;;;;;15.91;69.13;100893.00;5066314;28;20255;-76
2022/07/16 04:27:56;;;;;;;1.40;1.30;;;;;;;15.91;68.49;100913.19;5074802;28;20226;-76
2022/07/16 04:30:24;;;;;;;1.30;1.20;;;;;;;15.80;68.81;100927.59;5074730;28;20274;-76
2022/07/16 04:32:50;;;;;;;1.77;1.30;;;;;;;15.81;68.60;100925.81;5074980;28;20206;-76
2022/07/16 04:35:17;;;;;;;1.90;1.70;;;;;;;15.81;68.11;100947.72;5074462;28;20738;-76
2022/07/16 04:37:44;;;;;;;1.73;1.30;;;;;;;15.85;67.91;100949.34;5074653;28;20236;-76
2022/07/16 04:40:12;;;;;;;1.73;1.33;;;;;;;15.82;67.64;100962.63;5074634;28;20228;-76
2022/07/16 04:42:39;;;;;;;2.83;1.60;;;;;;;15.74;68.42;100959.38;5074840;28;20253;-75
2022/07/16 04:45:07;;;;;;;1.63;1.40;;;;;;;15.88;68.28;100944.00;5074126;28;20242;-76
2022/07/16 04:47:35;;;;;;;2.43;1.17;;;;;;;15.92;68.06;100957.06;5074423;28;20206;-75
2022/07/16 04:50:01;;;;;;;1.57;1.10;;;;;;;15.80;68.44;100959.19;5074622;28;20212;-76
2022/07/16 04:52:30;;;;;;;1.67;1.20;;;;;;;15.85;68.64;100953.75;5066621;28;20205;-76
2022/07/16 04:54:56;;;;;;;1.47;1.27;;;;;;;15.79;69.03;100933.75;5065707;28;20231;-76
2022/07/16 04:57:24;;;;;;;1.60;1.40;;;;;;;15.78;70.50;100912.75;5074607;28;20285;-76
2022/07/16 04:59:50;;;;;;;2.43;1.40;;;;;;;15.70;71.47;100878.75;5074103;28;20611;-76
2022/07/16 05:05:02;;;;;;;2.10;1.43;;;;;;;15.55;72.01;100837.16;5073516;28;20224;-76
2022/07/16 05:07:29;;;;;;;2.23;1.70;;;;;;;15.60;73.73;100811.53;5074384;28;20209;-76
2022/07/16 05:09:55;;;;;;;1.57;1.47;;;;;;;15.30;74.42;100795.84;5074318;28;20221;-76
2022/07/16 05:12:22;;;;;;;2.03;1.70;;;;;;;15.23;75.55;100761.03;5074496;28;20267;-75
2022/07/16 05:14:48;;;;;;;2.27;1.63;;;;;;;15.12;76.28;100726.31;5073880;28;20208;-76
2022/07/16 05:17:15;;;;;;;2.20;1.87;;;;;;;15.02;76.49;100732.81;5073714;28;20206;-75
2022/07/16 05:19:41;;;;;;;2.77;2.03;;;;;;;15.04;76.96;100718.72;5073795;28;20638;-76
2022/07/16 05:22:09;;;;;;;2.73;1.70;;;;;;;15.09;78.62;100687.84;5068377;28;20213;-76
2022/07/16 05:24:36;;;;;;;2.57;2.20;;;;;;;14.97;80.20;100642.72;5064052;28;20247;-76
2022/07/16 05:27:03;;;;;;;2.27;2.00;;;;;;;14.98;81.18;100605.00;5073718;28;20213;-76
2022/07/16 05:29:29;;;;;;;2.80;2.20;;;;;;;14.77;83.09;100580.34;5073636;28;20595;-76
2022/07/16 05:31:56;;;;;;;3.03;2.50;;;;;;;14.62;85.42;100535.25;5073452;28;20201;-76
2022/07/16 05:34:22;;;;;;;3.67;2.90;;;;;;;14.46;88.42;100452.63;5073868;28;20209;-76
2022/07/16 05:36:49;;;;;;;3.30;3.00;;;;;;;14.31;90.56;100409.38;5073540;28;20204;-76
2022/07/16 05:39:16;;;;;;;3.87;3.17;;;;;;;14.24;92.21;100376.34;5073574;28;20294;-76
2022/07/16 05:41:43;;;;;;;3.77;3.37;;;;;;;14.26;93.15;100375.38;5073592;28;20209;-76
2022/07/16 05:44:09;;;;;;;3.50;3.20;;;;;;;14.20;94.13;100386.09;5073615;28;20201;-76
2022/07/16 05:46:36;;;;;;;3.67;3.40;;;;;;;14.23;94.07;100406.13;5072740;28;20205;-76
2022/07/16 05:49:02;;;;;;;5.17;3.70;;;;;;;13.87;96.01;100407.34;5073468;28;20285;-76
2022/07/16 05:51:28;;;;;;;4.43;4.03;;;;;;;13.77;97.76;100397.19;5072911;28;20240;-76
2022/07/16 05:53:55;;;;;;;4.37;3.97;;;;;;;13.84;98.43;100404.81;5061611;28;20201;-76
2022/07/16 05:56:23;;;;;;;4.53;4.00;;;;;;;13.80;98.87;100426.81;5068779;28;20205;-76
2022/07/16 05:58:49;;;;;;;4.07;3.73;;;;;;;13.88;98.94;100461.53;5073078;28;20229;-76
2022/07/16 06:01:15;;;;;;;3.50;3.20;;;;;;;13.81;98.68;100485.38;5072739;28;20216;-76
2022/07/16 06:03:42;;;;;;;4.97;3.60;;;;;;;13.88;98.51;100507.91;5072721;28;20213;-76
2022/07/16 06:06:08;;;;;;;3.43;3.17;;;;;;;13.97;97.92;100533.00;5072856;28;20217;-75
2022/07/16 06:08:35;;;;;;;4.10;3.73;;;;;;;14.02;97.65;100560.81;5073147;28;20228;-76
2022/07/16 06:11:01;;;;;;;4.00;3.67;;;;;;;13.91;98.22;100565.53;5073054;28;20250;-76
2022/07/16 06:13:29;;;;;;;3.60;3.30;;;;;;;14.03;98.43;100566.91;5072707;28;20220;-76
2022/07/16 06:15:55;;;;;;;3.40;3.10;;;;;;;14.09;98.34;100585.09;5072428;28;20273;-76
2022/07/16 06:18:22;;;;;;;5.30;3.33;;;;;;;13.98;98.63;100587.22;5072895;28;20277;-77
2022/07/16 06:20:48;;;;;;;4.03;3.57;;;;;;;13.92;99.09;100590.88;5072759;28;20294;-76
2022/07/16 06:23:15;;;;;;;3.90;3.50;;;;;;;14.03;99.60;100586.19;5064824;28;20206;-77
2022/07/16 06:25:41;;;;;;;3.73;3.50;;;;;;;14.25;99.34;100603.84;5063956;28;20711;-76
2022/07/16 06:28:07;;;;;;;3.73;3.37;;;;;;;14.42;98.79;100622.56;5072374;28;20837;-75
2022/07/16 06:30:35;;;;;;;2.80;2.60;;;;;;;14.64;98.22;100637.66;5072682;28;20555;-75
2022/07/16 06:33:02;;;;;;;5.07;3.83;;;;;;;14.63;98.31;100644.69;5072521;28;20208;-75
2022/07/16 06:35:28;;;;;;;4.30;3.90;;;;;;;14.78;98.35;100655.63;5072265;28;20257;-76
2022/07/16 06:37:55;;;;;;;3.53;3.33;;;;;;;14.72;96.89;100682.94;5072421;28;20278;-75
2022/07/16 06:40:21;;;;;;;3.53;3.23;;;;;;;14.81;96.53;100705.47;5072169;28;20266;-75
2022/07/16 06:42:47;;;;;;;3.70;3.40;;;;;;;14.87;95.95;100713.16;5072386;28;20241;-76
2022/07/16 06:45:14;;;;;;;3.50;3.20;;;;;;;14.89;95.62;100724.47;5072157;28;20205;-76
2022/07/16 06:47:42;;;;;;;2.73;2.53;;;;;;;14.99;93.52;100756.56;5072229;28;20208;-76
2022/07/16 06:50:10;;;;;;;3.60;2.70;;;;;;;15.17;92.66;100791.94;5072269;28;20202;-76
2022/07/16 06:52:37;;;;;;;2.67;2.47;;;;;;;15.31;92.50;100805.47;5064223;28;20217;-76
2022/07/16 06:55:04;;;;;;;2.67;2.57;;;;;;;15.42;92.08;100820.91;5063186;28;20203;-76
2022/07/16 06:57:31;;;;;;;4.57;3.07;;;;;;;15.35;90.29;100869.38;5072208;28;20213;-76
2022/07/16 06:59:57;;;;;;;3.73;2.67;;;;;;;15.25;90.02;100887.22;5071657;28;20568;-76
2022/07/16 07:02:23;;;;;;;2.60;2.40;;;;;;;15.43;89.95;100880.50;5071643;28;20218;-76
2022/07/16 07:04:51;;;;;;;2.77;2.57;;;;;;;15.43;89.91;100884.00;5071002;28;20209;-75
2022/07/16 07:07:17;;;;;;;2.60;2.40;;;;;;;15.47;89.28;100901.41;5071851;28;20209;-76
2022/07/16 07:09:44;;;;;;;2.83;2.00;;;;;;;15.60;87.98;100938.72;5071088;28;20283;-76
2022/07/16 07:12:10;;;;;;;2.30;2.10;;;;;;;15.74;86.90;100963.75;5072142;28;20206;-76
2022/07/16 07:14:37;;;;;;;2.97;2.07;;;;;;;15.94;86.52;100974.53;5071972;28;20205;-76
2022/07/16 07:17:03;;;;;;;2.30;2.13;;;;;;;16.03;85.12;101016.34;5071486;28;20226;-76
2022/07/16 07:19:30;;;;;;;2.13;1.90;;;;;;;16.20;83.72;101052.69;5071674;28;20596;-76
2022/07/16 07:21:57;;;;;;;2.60;2.07;;;;;;;16.26;82.84;101091.13;5067435;28;20781;-76
2022/07/16 07:24:24;;;;;;;2.17;2.00;;;;;;;15.88;82.73;101107.22;5060320;28;20199;-76
2022/07/16 07:26:50;;;;;;;2.37;2.03;;;;;;;15.56;83.45;101102.88;5071733;28;20205;-75
2022/07/16 07:29:16;;;;;;;3.03;2.27;;;;;;;15.65;83.98;101071.00;5071859;28;20382;-75
2022/07/16 07:31:44;;;;;;;1.93;1.80;;;;;;;15.79;83.75;101065.38;5071552;28;20713;-76
2022/07/16 07:34:10;;;;;;;2.17;2.03;;;;;;;15.96;82.13;101090.34;5071922;28;20209;-77
2022/07/16 07:36:36;;;;;;;2.27;1.80;;;;;;;16.10;80.70;101140.81;5057522;28;20206;-76
2022/07/16 07:39:04;;;;;;;1.87;1.60;;;;;;;16.21;80.62;101157.16;5051050;28;20218;-76
2022/07/16 07:41:31;;;;;;;1.70;1.60;;;;;;;16.39;79.68;101155.72;5051295;28;20205;-77
2022/07/16 07:43:57;;;;;;;4.27;1.97;;;;;;;16.57;78.11;101204.34;5052745;28;20245;-78
2022/07/16 07:46:24;;;;;;;1.53;1.43;;;;;;;16.57;75.19;101283.41;5051486;28;20200;-77
2022/07/16 07:48:50;;;;;;;1.20;1.20;;;;;;;16.32;75.44;101333.34;5053232;28;20223;-78
2022/07/16 07:51:17;;;;;;;1.27;1.00;;;;;;;16.39;74.90;101345.44;5053438;28;20202;-78
2022/07/16 07:53:43;;;;;;;2.83;1.40;;;;;;;16.54;75.46;101346.75;5058982;28;20211;-78
2022/07/16 07:56:12;;;;;;;2.83;1.40;;;;;;;16.77;73.95;101356.63;5055594;28;20253;-78
2022/07/16 07:58:38;;;;;;;1.97;1.47;;;;;;;16.85;71.33;101414.44;5053449;28;20226;-78
2022/07/16 08:01:05;;;;;;;2.03;1.13;;;;;;;16.95;71.80;101428.22;5053097;28;20250;-77
2022/07/16 08:03:32;;;;;;;1.33;1.20;;;;;;;16.97;70.51;101461.56;5053500;28;20241;-78
2022/07/16 08:05:58;;;;;;;1.93;1.43;;;;;;;17.00;70.86;101471.13;5054020;28;20202;-78
2022/07/16 08:08:24;;;;;;;1.70;1.10;;;;;;;17.02;69.54;101477.25;5053523;28;20218;-78
2022/07/16 08:10:51;;;;;;;1.73;1.20;;;;;;;17.18;71.09;101467.94;5053448;28;20201;-77
2022/07/16 08:13:19;;;;;;;2.80;1.50;;;;;;;17.19;70.60;101453.00;5052812;28;20790;-79
2022/07/16 08:15:45;;;;;;;2.93;1.80;;;;;;;17.30;70.75;101442.97;5053280;28;20213;-78
2022/07/16 08:18:11;;;;;;;1.30;1.20;;;;;;;17.05;69.86;101466.59;5052674;28;20289;-78
2022/07/16 08:20:39;;;;;;;1.50;1.40;;;;;;;17.34;70.22;101462.22;5055233;28;20288;-77
2022/07/16 08:23:06;;;;;;;1.73;1.27;;;;;;;17.23;68.07;101513.53;5056133;28;20204;-77
2022/07/16 08:25:47;;;;;;;1.20;1.10;;;;;;;17.31;67.09;101559.97;5057303;28;20204;-77
2022/07/16 08:28:14;;;;;;;1.57;1.33;;;;;;;17.46;66.61;101572.69;5055455;28;20702;-76
2022/07/16 08:30:43;;;;;;;4.97;1.47;;;;;;;17.44;67.15;101564.84;5057059;28;20209;-78
2022/07/16 08:33:09;;;;;;;1.40;1.20;;;;;;;17.56;67.96;101531.06;5053716;28;20607;-78
2022/07/16 08:35:36;;;;;;;2.07;1.30;;;;;;;17.62;68.35;101529.09;5056338;28;20235;-77
2022/07/16 08:38:02;;;;;;;1.77;1.30;;;;;;;17.86;66.13;101542.50;5056922;28;20223;-78
2022/07/16 08:40:29;;;;;;;2.60;1.23;;;;;;;18.03;65.60;101571.84;5053882;28;20225;-79
2022/07/16 08:42:56;;;;;;;1.73;1.30;;;;;;;17.95;64.67;101600.31;5057775;28;20237;-79
2022/07/16 08:45:23;;;;;;;0.90;0.90;;;;;;;18.00;62.81;101642.44;5057642;28;20201;-78
2022/07/16 08:47:53;;;;;;;2.23;1.13;;;;;;;18.13;63.05;101674.63;5057178;28;20216;-77
2022/07/16 08:50:20;;;;;;;1.80;1.30;;;;;;;18.25;62.62;101675.13;5056714;28;20569;-78
2022/07/16 08:52:50;;;;;;;1.73;1.23;;;;;;;18.31;61.12;101675.84;5060265;28;20546;-78
2022/07/16 08:55:17;;;;;;;1.77;1.33;;;;;;;18.24;61.76;101705.09;5068621;28;20688;-78
2022/07/16 08:57:48;;;;;;;2.47;1.20;;;;;;;18.17;61.44;101703.56;5076819;28;20208;-78
2022/07/16 09:00:15;;;;;;;1.10;1.00;;;;;;;18.39;61.93;101711.72;5076210;28;20242;-78
2022/07/16 09:02:42;;;;;;;5.50;1.17;;;;;;;18.31;60.54;101729.56;5076442;28;20273;-78
2022/07/16 09:05:10;;;;;;;2.10;1.30;;;;;;;18.08;61.57;101734.66;5075011;28;20212;-77
2022/07/16 09:07:36;;;;;;;1.77;0.90;;;;;;;18.10;61.52;101707.31;4361610;28;10000702;-78
2022/07/16 09:10:04;;;;;;;1.30;1.20;;;;;;;18.22;61.08;101706.06;5059538;28;20230;-78
2022/07/16 09:12:40;;;;;;;6.20;1.03;;;;;;;18.28;60.66;101731.47;5052759;28;20219;-77
2022/07/16 09:15:27;;;;;;;1.57;1.10;;;;;;;18.40;59.51;101726.66;5053258;28;20301;-79
2022/07/16 09:18:17;;;;;;;1.87;1.10;;;;;;;18.30;59.69;101759.56;5052663;28;20670;-79
2022/07/16 09:20:48;;;;;;;2.47;1.20;;;;;;;17.98;58.82;101773.75;5052675;28;20319;-79
2022/07/16 09:23:23;;;;;;;1.20;1.10;;;;;;;17.99;59.38;101780.72;5059293;28;20607;-78
2022/07/16 09:25:51;;;;;;;1.30;1.00;;;;;;;18.27;60.04;101767.59;5049773;28;20199;-77
2022/07/16 09:28:18;;;;;;;2.20;1.00;;;;;;;18.52;58.74;101751.00;5052069;28;20225;-77
2022/07/16 09:30:44;;;;;;;6.13;1.10;;;;;;;18.36;58.74;101785.81;5052174;28;20212;-77
2022/07/16 09:33:16;;;;;;;2.57;1.30;;;;;;;18.57;60.75;101754.34;5051433;28;20222;-78
2022/07/16 09:35:42;;;;;;;2.17;1.20;;;;;;;18.36;61.17;101730.31;5052102;28;20208;-77
2022/07/16 09:38:11;;;;;;;1.53;0.90;;;;;;;18.36;60.51;101703.00;5051009;28;20714;-78
2022/07/16 09:40:40;;;;;;;3.63;1.20;;;;;;;18.59;58.46;101740.19;5051830;28;20232;-79
2022/07/16 09:43:19;;;;;;;1.53;0.87;;;;;;;18.87;57.28;101762.25;5057542;28;20837;-79
2022/07/16 09:45:48;;;;;;;1.43;0.90;;;;;;;18.95;55.79;101821.06;5057918;28;20270;-79
2022/07/16 09:48:26;;;;;;;1.67;1.00;;;;;;;18.90;55.51;101852.97;5054684;28;20266;-78
2022/07/16 09:50:54;;;;;;;1.47;1.00;;;;;;;18.77;56.17;101876.28;5054095;28;20211;-78
2022/07/16 09:53:24;;;;;;;4.27;1.80;;;;;;;18.61;56.87;101857.38;5059692;28;20208;-78
2022/07/16 09:56:02;;;;;;;1.77;1.10;;;;;;;18.90;56.95;101830.97;5055437;28;20215;-78
2022/07/16 09:58:29;;;;;;;1.93;1.00;;;;;;;19.10;56.11;101852.34;5070585;28;20236;-77
2022/07/16 10:00:56;;;;;;;1.87;1.00;;;;;;;19.24;55.40;101842.16;5070508;28;20593;-76
2022/07/16 10:03:23;;;;;;;1.73;1.00;;;;;;;19.18;51.46;101890.03;5071189;28;20272;-77
2022/07/16 10:05:50;;;;;;;2.33;0.80;;;;;;;19.27;50.96;101986.00;5070771;28;20216;-77
2022/07/16 10:08:17;;;;;;;7.37;1.93;;;;;;;19.47;51.94;102011.84;5055895;28;20238;-77
2022/07/16 10:10:46;;;;;;;1.50;0.80;;;;;;;19.43;51.70;102013.72;5053171;28;20222;-79
2022/07/16 10:13:13;;;;;;;2.40;0.93;;;;;;;19.29;52.41;102043.28;5053640;28;20385;-81
2022/07/16 10:15:41;;;;;;;1.60;0.90;;;;;;;19.27;54.30;101997.44;5063256;28;20201;-79
2022/07/16 10:18:36;;;;;;;3.07;1.00;;;;;;;19.21;53.36;101963.22;5073362;28;20270;-79
2022/07/16 10:21:10;;;;;;;2.63;1.07;;;;;;;18.93;53.33;101960.50;5045170;28;20216;-79
2022/07/16 10:23:38;;;;;;;2.93;0.97;;;;;;;19.13;53.10;101947.56;5072920;28;20257;-79
2022/07/16 10:26:08;;;;;;;3.37;0.97;;;;;;;19.28;52.30;101964.75;5065169;28;20222;-79
2022/07/16 10:28:37;;;;;;;2.73;1.17;;;;;;;19.37;52.59;101977.69;5071405;28;20224;-79
2022/07/16 10:31:35;;;;;;;2.50;1.20;;;;;;;19.54;51.74;101990.41;5072785;28;20196;-79
2022/07/16 10:34:37;;;;;;;4.33;0.90;;;;;;;19.76;50.37;101998.59;5072083;28;20210;-80
2022/07/16 10:37:06;;;;;;;2.07;0.80;;;;;;;19.69;50.21;102046.50;5040547;28;20298;-80
2022/07/16 10:39:32;;;;;;;2.60;0.97;;;;;;;19.83;49.28;102049.59;5072238;28;20225;-79
2022/07/16 10:42:01;;;;;;;2.10;0.90;;;;;;;19.85;49.69;102082.22;5064911;28;20234;-79
2022/07/16 10:44:44;;;;;;;2.47;0.97;;;;;;;19.81;49.40;102073.47;5070481;28;20200;-80
2022/07/16 10:47:12;;;;;;;2.10;0.90;;;;;;;19.21;49.72;102088.50;5073615;28;20208;-80
2022/07/16 10:49:39;;;;;;;2.33;1.00;;;;;;;18.80;50.62;102066.69;5072651;28;20767;-79
2022/07/16 10:52:08;;;;;;;3.37;0.80;;;;;;;18.93;50.17;102024.91;5074339;28;20219;-80
2022/07/16 10:54:37;;;;;;;5.00;2.10;;;;;;;19.25;50.38;102039.84;5065568;28;20240;-79
2022/07/16 10:57:06;;;;;;;1.73;0.90;;;;;;;19.57;48.14;102053.03;5065442;28;20214;-79
2022/07/16 10:59:34;;;;;;;2.60;0.97;;;;;;;19.51;48.21;102114.16;5067331;28;20717;-78
2022/07/16 11:02:03;;;;;;;4.53;1.00;;;;;;;19.69;47.13;102124.19;5065559;28;20219;-80
2022/07/16 11:04:33;;;;;;;1.63;0.70;;;;;;;19.73;46.80;102141.75;5072264;28;20230;-79
2022/07/16 11:07:01;;;;;;;1.57;0.90;;;;;;;20.01;46.08;102175.38;5068204;28;20893;-79
2022/07/16 11:09:30;;;;;;;2.60;0.93;;;;;;;19.68;45.00;102207.22;5052633;28;20646;-79
2022/07/16 11:12:06;;;;;;;1.07;0.63;;;;;;;19.22;45.50;102243.78;5054138;28;20212;-80
2022/07/16 11:14:34;;;;;;;2.83;0.80;;;;;;;19.40;45.98;102217.72;5053526;28;20217;-80
2022/07/16 11:17:00;;;;;;;2.77;1.00;;;;;;;19.57;44.44;102191.63;5053076;28;20217;-79
2022/07/16 11:19:27;;;;;;;2.03;1.00;;;;;;;19.43;43.99;102226.47;5053541;28;20243;-81
2022/07/16 11:21:55;;;;;;;1.73;0.90;;;;;;;19.54;43.93;102255.28;5053189;28;20894;-81
2022/07/16 11:24:22;;;;;;;2.37;0.77;;;;;;;19.70;42.93;102273.41;5053954;28;20209;-81
2022/07/16 11:26:51;;;;;;;2.33;0.90;;;;;;;19.79;42.25;102287.31;5060849;28;20266;-80
2022/07/16 11:29:19;;;;;;;2.17;0.70;;;;;;;20.07;41.68;102294.47;5069999;28;20314;-79
2022/07/16 11:31:47;;;;;;;1.73;0.60;;;;;;;19.92;41.16;102383.28;5074017;28;20219;-79